sensor_id;sensor_type;location;lat;lon;timestamp;temperature;humidity
27026;DHT22;14565;48.626;8.978;2023-02-15T00:01:17;-0.30;99.90
27026;DHT22;14565;48.626;8.978;2023-02-15T00:03:43;-0.40;99.90
27026;DHT22;14565;48.626;8.978;2023-02-15T00:06:09;-0.50;99.90
27026;DHT22;14565;48.626;8.978;2023-02-15T00:08:34;-0.50;99.90
27026;DHT22;14565;48.626;8.978;2023-02-15T00:11:08;-0.50;99.90
27026;DHT22;14565;48.626;8.978;2023-02-15T00:13:34;-0.60;99.90
27026;DHT22;14565;48.626;8.978;2023-02-15T00:16:06;-0.70;99.90
27026;DHT22;14565;48.626;8.978;2023-02-15T00:18:33;-0.70;99.90
27026;DHT22;14565;48.626;8.978;2023-02-15T00:21:02;-0.70;99.90
27026;DHT22;14565;48.626;8.978;2023-02-15T00:23:28;-0.70;99.90
27026;DHT22;14565;48.626;8.978;2023-02-15T00:26:11;-0.70;99.90
27026;DHT22;14565;48.626;8.978;2023-02-15T00:28:38;-0.80;99.90
27026;DHT22;14565;48.626;8.978;2023-02-15T00:31:11;-0.90;99.90
27026;DHT22;14565;48.626;8.978;2023-02-15T00:33:38;-0.90;99.90
27026;DHT22;14565;48.626;8.978;2023-02-15T00:36:05;-1.00;99.90
27026;DHT22;14565;48.626;8.978;2023-02-15T00:38:32;-1.00;99.90
27026;DHT22;14565;48.626;8.978;2023-02-15T00:41:00;-1.00;99.90
27026;DHT22;14565;48.626;8.978;2023-02-15T00:43:27;-0.90;99.90
27026;DHT22;14565;48.626;8.978;2023-02-15T00:45:53;-0.90;99.90
27026;DHT22;14565;48.626;8.978;2023-02-15T00:48:19;-0.90;99.90
27026;DHT22;14565;48.626;8.978;2023-02-15T00:50:46;-0.80;99.90
27026;DHT22;14565;48.626;8.978;2023-02-15T00:53:12;-0.90;99.90
27026;DHT22;14565;48.626;8.978;2023-02-15T00:55:38;-0.90;99.90
27026;DHT22;14565;48.626;8.978;2023-02-15T00:58:06;-0.90;99.90
27026;DHT22;14565;48.626;8.978;2023-02-15T01:00:31;-0.90;99.90
27026;DHT22;14565;48.626;8.978;2023-02-15T01:02:57;-0.90;99.90
27026;DHT22;14565;48.626;8.978;2023-02-15T01:05:23;-0.90;99.90
27026;DHT22;14565;48.626;8.978;2023-02-15T01:07:49;-1.00;99.90
27026;DHT22;14565;48.626;8.978;2023-02-15T01:10:16;-1.00;99.90
27026;DHT22;14565;48.626;8.978;2023-02-15T01:12:41;-0.90;99.90
27026;DHT22;14565;48.626;8.978;2023-02-15T01:15:07;-1.00;99.90
27026;DHT22;14565;48.626;8.978;2023-02-15T01:17:33;-1.00;99.90
27026;DHT22;14565;48.626;8.978;2023-02-15T01:19:59;-0.90;99.90
27026;DHT22;14565;48.626;8.978;2023-02-15T01:22:25;-0.90;99.90
27026;DHT22;14565;48.626;8.978;2023-02-15T01:24:51;-1.00;99.90
27026;DHT22;14565;48.626;8.978;2023-02-15T01:27:17;-1.00;99.90
27026;DHT22;14565;48.626;8.978;2023-02-15T01:29:43;-1.00;99.90
27026;DHT22;14565;48.626;8.978;2023-02-15T01:32:09;-1.00;99.90
27026;DHT22;14565;48.626;8.978;2023-02-15T01:34:34;-1.10;99.90
27026;DHT22;14565;48.626;8.978;2023-02-15T01:37:00;-1.10;99.90
27026;DHT22;14565;48.626;8.978;2023-02-15T01:39:25;-1.00;99.90
27026;DHT22;14565;48.626;8.978;2023-02-15T01:41:51;-1.10;99.90
27026;DHT22;14565;48.626;8.978;2023-02-15T01:50:03;-1.00;99.90
27026;DHT22;14565;48.626;8.978;2023-02-15T01:52:34;-0.90;99.90
27026;DHT22;14565;48.626;8.978;2023-02-15T01:55:01;-0.90;99.90
27026;DHT22;14565;48.626;8.978;2023-02-15T01:57:28;-1.00;99.90
27026;DHT22;14565;48.626;8.978;2023-02-15T01:59:56;-1.10;99.90
27026;DHT22;14565;48.626;8.978;2023-02-15T02:02:25;-1.20;99.90
27026;DHT22;14565;48.626;8.978;2023-02-15T02:04:53;-1.30;99.90
27026;DHT22;14565;48.626;8.978;2023-02-15T02:07:25;-1.40;99.90
27026;DHT22;14565;48.626;8.978;2023-02-15T02:09:52;-1.40;99.90
27026;DHT22;14565;48.626;8.978;2023-02-15T02:12:18;-1.30;99.90
27026;DHT22;14565;48.626;8.978;2023-02-15T02:14:47;-1.30;99.90
27026;DHT22;14565;48.626;8.978;2023-02-15T02:17:27;-1.20;99.90
27026;DHT22;14565;48.626;8.978;2023-02-15T02:22:56;-1.20;99.90
27026;DHT22;14565;48.626;8.978;2023-02-15T02:44:54;-1.30;99.90
27026;DHT22;14565;48.626;8.978;2023-02-15T02:47:28;-1.40;99.90
27026;DHT22;14565;48.626;8.978;2023-02-15T02:50:00;-1.40;99.90
27026;DHT22;14565;48.626;8.978;2023-02-15T02:55:03;-1.20;99.90
27026;DHT22;14565;48.626;8.978;2023-02-15T02:57:32;-1.40;99.90
27026;DHT22;14565;48.626;8.978;2023-02-15T03:00:00;-1.50;99.90
27026;DHT22;14565;48.626;8.978;2023-02-15T03:02:32;-1.50;99.90
27026;DHT22;14565;48.626;8.978;2023-02-15T03:05:03;-1.50;99.90
27026;DHT22;14565;48.626;8.978;2023-02-15T03:07:31;-1.40;99.90
27026;DHT22;14565;48.626;8.978;2023-02-15T03:10:02;-1.50;99.90
27026;DHT22;14565;48.626;8.978;2023-02-15T03:12:37;-1.50;99.90
27026;DHT22;14565;48.626;8.978;2023-02-15T03:15:20;-1.50;99.90
27026;DHT22;14565;48.626;8.978;2023-02-15T03:17:57;-1.50;99.90
27026;DHT22;14565;48.626;8.978;2023-02-15T03:20:31;-1.60;99.90
27026;DHT22;14565;48.626;8.978;2023-02-15T03:23:04;-1.60;99.90
27026;DHT22;14565;48.626;8.978;2023-02-15T03:25:56;-1.50;99.90
27026;DHT22;14565;48.626;8.978;2023-02-15T03:28:28;-1.50;99.90
27026;DHT22;14565;48.626;8.978;2023-02-15T03:30:56;-1.50;99.90
27026;DHT22;14565;48.626;8.978;2023-02-15T03:33:23;-1.50;99.90
27026;DHT22;14565;48.626;8.978;2023-02-15T03:36:00;-1.50;99.90
27026;DHT22;14565;48.626;8.978;2023-02-15T03:38:43;-1.50;99.90
27026;DHT22;14565;48.626;8.978;2023-02-15T03:41:11;-1.40;99.90
27026;DHT22;14565;48.626;8.978;2023-02-15T03:46:18;-1.50;99.90
27026;DHT22;14565;48.626;8.978;2023-02-15T03:48:53;-1.70;99.90
27026;DHT22;14565;48.626;8.978;2023-02-15T03:51:28;-1.80;99.90
27026;DHT22;14565;48.626;8.978;2023-02-15T03:54:24;-1.80;99.90
27026;DHT22;14565;48.626;8.978;2023-02-15T03:57:28;-1.70;99.90
27026;DHT22;14565;48.626;8.978;2023-02-15T04:00:22;-1.50;99.90
27026;DHT22;14565;48.626;8.978;2023-02-15T04:05:38;-1.50;99.90
27026;DHT22;14565;48.626;8.978;2023-02-15T04:08:04;-1.50;99.90
27026;DHT22;14565;48.626;8.978;2023-02-15T04:10:30;-1.60;99.90
27026;DHT22;14565;48.626;8.978;2023-02-15T04:13:14;-1.80;99.90
27026;DHT22;14565;48.626;8.978;2023-02-15T04:15:40;-1.80;99.90
27026;DHT22;14565;48.626;8.978;2023-02-15T04:18:24;-1.80;99.90
27026;DHT22;14565;48.626;8.978;2023-02-15T04:21:08;-1.80;99.90
27026;DHT22;14565;48.626;8.978;2023-02-15T04:23:52;-1.90;99.90
27026;DHT22;14565;48.626;8.978;2023-02-15T04:26:36;-1.90;99.90
27026;DHT22;14565;48.626;8.978;2023-02-15T04:29:01;-1.80;99.90
27026;DHT22;14565;48.626;8.978;2023-02-15T04:31:27;-1.90;99.90
27026;DHT22;14565;48.626;8.978;2023-02-15T04:33:52;-1.90;99.90
27026;DHT22;14565;48.626;8.978;2023-02-15T04:36:18;-1.80;99.90
27026;DHT22;14565;48.626;8.978;2023-02-15T04:38:44;-1.90;99.90
27026;DHT22;14565;48.626;8.978;2023-02-15T04:41:09;-1.80;99.90
27026;DHT22;14565;48.626;8.978;2023-02-15T04:43:36;-1.80;99.90
27026;DHT22;14565;48.626;8.978;2023-02-15T04:46:02;-1.90;99.90
27026;DHT22;14565;48.626;8.978;2023-02-15T04:48:27;-1.90;99.90
27026;DHT22;14565;48.626;8.978;2023-02-15T04:50:53;-1.90;99.90
27026;DHT22;14565;48.626;8.978;2023-02-15T04:53:19;-2.00;99.90
27026;DHT22;14565;48.626;8.978;2023-02-15T04:55:44;-2.00;99.90
27026;DHT22;14565;48.626;8.978;2023-02-15T04:58:10;-2.00;99.90
27026;DHT22;14565;48.626;8.978;2023-02-15T05:00:35;-2.10;99.90
27026;DHT22;14565;48.626;8.978;2023-02-15T05:03:01;-2.10;99.90
27026;DHT22;14565;48.626;8.978;2023-02-15T05:05:27;-1.70;99.90
27026;DHT22;14565;48.626;8.978;2023-02-15T05:07:53;-1.70;99.90
27026;DHT22;14565;48.626;8.978;2023-02-15T05:10:19;-2.00;99.90
27026;DHT22;14565;48.626;8.978;2023-02-15T05:12:45;-2.10;99.90
27026;DHT22;14565;48.626;8.978;2023-02-15T05:15:10;-2.00;99.90
27026;DHT22;14565;48.626;8.978;2023-02-15T05:17:36;-2.10;99.90
27026;DHT22;14565;48.626;8.978;2023-02-15T05:20:03;-2.00;99.90
27026;DHT22;14565;48.626;8.978;2023-02-15T05:22:28;-1.90;99.90
27026;DHT22;14565;48.626;8.978;2023-02-15T05:24:54;-1.80;99.90
27026;DHT22;14565;48.626;8.978;2023-02-15T05:27:38;-1.90;99.90
27026;DHT22;14565;48.626;8.978;2023-02-15T05:30:22;-2.00;99.90
27026;DHT22;14565;48.626;8.978;2023-02-15T05:32:48;-1.80;99.90
27026;DHT22;14565;48.626;8.978;2023-02-15T05:35:17;-2.00;99.90
27026;DHT22;14565;48.626;8.978;2023-02-15T05:37:43;-2.00;99.90
27026;DHT22;14565;48.626;8.978;2023-02-15T05:40:08;-2.00;99.90
27026;DHT22;14565;48.626;8.978;2023-02-15T05:42:34;-2.00;99.90
27026;DHT22;14565;48.626;8.978;2023-02-15T05:45:00;-2.00;99.90
27026;DHT22;14565;48.626;8.978;2023-02-15T05:47:25;-2.00;99.90
27026;DHT22;14565;48.626;8.978;2023-02-15T05:49:51;-2.00;99.90
27026;DHT22;14565;48.626;8.978;2023-02-15T05:52:17;-2.00;99.90
27026;DHT22;14565;48.626;8.978;2023-02-15T05:54:43;-2.10;99.90
27026;DHT22;14565;48.626;8.978;2023-02-15T05:57:08;-2.10;99.90
27026;DHT22;14565;48.626;8.978;2023-02-15T05:59:34;-2.20;99.90
27026;DHT22;14565;48.626;8.978;2023-02-15T06:01:59;-2.20;99.90
27026;DHT22;14565;48.626;8.978;2023-02-15T06:04:25;-2.30;99.90
27026;DHT22;14565;48.626;8.978;2023-02-15T06:06:51;-2.00;99.90
27026;DHT22;14565;48.626;8.978;2023-02-15T06:09:16;-1.80;99.90
27026;DHT22;14565;48.626;8.978;2023-02-15T06:11:44;-1.80;99.90
27026;DHT22;14565;48.626;8.978;2023-02-15T06:14:10;-2.10;99.90
27026;DHT22;14565;48.626;8.978;2023-02-15T06:16:36;-2.30;99.90
27026;DHT22;14565;48.626;8.978;2023-02-15T06:19:02;-2.40;99.90
27026;DHT22;14565;48.626;8.978;2023-02-15T06:21:28;-2.50;99.90
27026;DHT22;14565;48.626;8.978;2023-02-15T06:23:54;-2.50;99.90
27026;DHT22;14565;48.626;8.978;2023-02-15T06:26:19;-2.30;99.90
27026;DHT22;14565;48.626;8.978;2023-02-15T06:28:45;-2.30;99.90
27026;DHT22;14565;48.626;8.978;2023-02-15T06:31:11;-2.30;99.90
27026;DHT22;14565;48.626;8.978;2023-02-15T06:33:36;-2.40;99.90
27026;DHT22;14565;48.626;8.978;2023-02-15T06:36:02;-2.40;99.90
27026;DHT22;14565;48.626;8.978;2023-02-15T06:38:29;-2.40;99.90
27026;DHT22;14565;48.626;8.978;2023-02-15T06:40:55;-2.40;99.90
27026;DHT22;14565;48.626;8.978;2023-02-15T06:43:21;-2.40;99.90
27026;DHT22;14565;48.626;8.978;2023-02-15T06:45:46;-2.50;99.90
27026;DHT22;14565;48.626;8.978;2023-02-15T06:48:12;-2.40;99.90
27026;DHT22;14565;48.626;8.978;2023-02-15T06:50:37;-2.30;99.90
27026;DHT22;14565;48.626;8.978;2023-02-15T06:53:03;-2.30;99.90
27026;DHT22;14565;48.626;8.978;2023-02-15T06:55:29;-2.40;99.90
27026;DHT22;14565;48.626;8.978;2023-02-15T06:57:54;-2.20;99.90
27026;DHT22;14565;48.626;8.978;2023-02-15T07:00:20;-2.20;99.90
27026;DHT22;14565;48.626;8.978;2023-02-15T07:02:53;-2.20;99.90
27026;DHT22;14565;48.626;8.978;2023-02-15T07:05:20;-2.20;99.90
27026;DHT22;14565;48.626;8.978;2023-02-15T07:07:46;-2.20;99.90
27026;DHT22;14565;48.626;8.978;2023-02-15T07:10:12;-2.20;99.90
27026;DHT22;14565;48.626;8.978;2023-02-15T07:12:37;-2.10;99.90
27026;DHT22;14565;48.626;8.978;2023-02-15T07:15:17;-2.00;99.90
27026;DHT22;14565;48.626;8.978;2023-02-15T07:17:44;-1.90;99.90
27026;DHT22;14565;48.626;8.978;2023-02-15T07:20:23;-1.90;99.90
27026;DHT22;14565;48.626;8.978;2023-02-15T07:22:49;-1.80;99.90
27026;DHT22;14565;48.626;8.978;2023-02-15T07:25:15;-1.70;99.90
27026;DHT22;14565;48.626;8.978;2023-02-15T07:27:41;-1.50;99.90
27026;DHT22;14565;48.626;8.978;2023-02-15T07:30:10;-1.50;99.90
27026;DHT22;14565;48.626;8.978;2023-02-15T07:32:36;-1.40;99.90
27026;DHT22;14565;48.626;8.978;2023-02-15T07:35:02;-1.30;99.90
27026;DHT22;14565;48.626;8.978;2023-02-15T07:37:28;-1.30;99.90
27026;DHT22;14565;48.626;8.978;2023-02-15T07:39:54;-1.10;99.90
27026;DHT22;14565;48.626;8.978;2023-02-15T07:42:19;-1.00;99.90
27026;DHT22;14565;48.626;8.978;2023-02-15T07:44:46;-0.90;99.90
27026;DHT22;14565;48.626;8.978;2023-02-15T07:47:12;-0.80;99.90
27026;DHT22;14565;48.626;8.978;2023-02-15T07:49:37;-0.70;99.90
27026;DHT22;14565;48.626;8.978;2023-02-15T07:52:03;-0.50;99.90
27026;DHT22;14565;48.626;8.978;2023-02-15T07:54:29;-0.40;99.90
27026;DHT22;14565;48.626;8.978;2023-02-15T07:56:55;-0.30;99.90
27026;DHT22;14565;48.626;8.978;2023-02-15T07:59:21;-0.10;99.90
27026;DHT22;14565;48.626;8.978;2023-02-15T08:01:46;-0.10;99.90
27026;DHT22;14565;48.626;8.978;2023-02-15T08:04:12;0.20;99.90
27026;DHT22;14565;48.626;8.978;2023-02-15T08:06:38;0.30;99.90
27026;DHT22;14565;48.626;8.978;2023-02-15T08:09:08;0.50;99.90
27026;DHT22;14565;48.626;8.978;2023-02-15T08:11:36;1.00;99.90
27026;DHT22;14565;48.626;8.978;2023-02-15T08:14:07;0.40;99.90
27026;DHT22;14565;48.626;8.978;2023-02-15T08:21:34;0.70;99.90
27026;DHT22;14565;48.626;8.978;2023-02-15T08:24:01;0.60;99.90
27026;DHT22;14565;48.626;8.978;2023-02-15T08:26:27;0.30;99.90
27026;DHT22;14565;48.626;8.978;2023-02-15T08:28:54;0.30;99.90
27026;DHT22;14565;48.626;8.978;2023-02-15T08:31:20;0.50;99.90
27026;DHT22;14565;48.626;8.978;2023-02-15T08:33:50;0.90;99.90
27026;DHT22;14565;48.626;8.978;2023-02-15T08:36:18;1.10;99.90
27026;DHT22;14565;48.626;8.978;2023-02-15T08:38:44;1.20;99.90
27026;DHT22;14565;48.626;8.978;2023-02-15T08:43:45;1.40;99.90
27026;DHT22;14565;48.626;8.978;2023-02-15T08:46:13;1.50;99.90
27026;DHT22;14565;48.626;8.978;2023-02-15T08:48:39;1.60;99.90
27026;DHT22;14565;48.626;8.978;2023-02-15T08:51:15;1.80;99.90
27026;DHT22;14565;48.626;8.978;2023-02-15T08:53:43;2.30;99.90
27026;DHT22;14565;48.626;8.978;2023-02-15T08:56:10;2.70;99.90
27026;DHT22;14565;48.626;8.978;2023-02-15T08:58:36;3.00;99.90
27026;DHT22;14565;48.626;8.978;2023-02-15T09:01:11;3.40;99.90
27026;DHT22;14565;48.626;8.978;2023-02-15T09:03:38;3.50;99.90
27026;DHT22;14565;48.626;8.978;2023-02-15T09:06:05;3.80;99.90
27026;DHT22;14565;48.626;8.978;2023-02-15T09:08:31;3.70;99.90
27026;DHT22;14565;48.626;8.978;2023-02-15T09:13:33;4.20;99.90
27026;DHT22;14565;48.626;8.978;2023-02-15T09:16:04;5.00;99.90
27026;DHT22;14565;48.626;8.978;2023-02-15T09:18:32;5.50;99.90
27026;DHT22;14565;48.626;8.978;2023-02-15T09:21:04;5.70;99.90
27026;DHT22;14565;48.626;8.978;2023-02-15T09:23:30;6.00;99.90
27026;DHT22;14565;48.626;8.978;2023-02-15T09:25:56;6.10;99.90
27026;DHT22;14565;48.626;8.978;2023-02-15T09:28:22;6.30;99.90
27026;DHT22;14565;48.626;8.978;2023-02-15T09:30:47;6.40;99.90
27026;DHT22;14565;48.626;8.978;2023-02-15T09:33:13;6.50;99.90
27026;DHT22;14565;48.626;8.978;2023-02-15T09:35:39;6.80;99.90
27026;DHT22;14565;48.626;8.978;2023-02-15T09:38:04;6.80;99.90
27026;DHT22;14565;48.626;8.978;2023-02-15T09:40:36;6.80;99.90
27026;DHT22;14565;48.626;8.978;2023-02-15T09:43:11;7.10;99.90
27026;DHT22;14565;48.626;8.978;2023-02-15T09:45:53;7.30;99.90
27026;DHT22;14565;48.626;8.978;2023-02-15T09:48:38;7.30;99.90
27026;DHT22;14565;48.626;8.978;2023-02-15T09:51:38;7.60;99.90
27026;DHT22;14565;48.626;8.978;2023-02-15T09:56:45;7.90;99.90
27026;DHT22;14565;48.626;8.978;2023-02-15T09:59:37;7.90;99.90
27026;DHT22;14565;48.626;8.978;2023-02-15T10:05:53;8.00;99.90
27026;DHT22;14565;48.626;8.978;2023-02-15T10:08:39;8.30;99.90
27026;DHT22;14565;48.626;8.978;2023-02-15T10:11:16;8.40;99.90
27026;DHT22;14565;48.626;8.978;2023-02-15T10:27:20;8.80;99.90
27026;DHT22;14565;48.626;8.978;2023-02-15T10:32:52;9.00;99.90
27026;DHT22;14565;48.626;8.978;2023-02-15T10:35:50;9.10;99.90
27026;DHT22;14565;48.626;8.978;2023-02-15T10:38:37;9.10;99.90
27026;DHT22;14565;48.626;8.978;2023-02-15T10:44:05;9.40;99.90
27026;DHT22;14565;48.626;8.978;2023-02-15T10:46:48;9.40;99.90
27026;DHT22;14565;48.626;8.978;2023-02-15T10:49:40;9.30;99.90
27026;DHT22;14565;48.626;8.978;2023-02-15T10:52:35;9.40;99.90
27026;DHT22;14565;48.626;8.978;2023-02-15T10:55:08;9.40;99.90
27026;DHT22;14565;48.626;8.978;2023-02-15T11:00:35;9.50;99.90
27026;DHT22;14565;48.626;8.978;2023-02-15T11:08:21;9.80;99.90
27026;DHT22;14565;48.626;8.978;2023-02-15T11:13:23;9.90;99.90
27026;DHT22;14565;48.626;8.978;2023-02-15T11:16:02;10.00;99.90
27026;DHT22;14565;48.626;8.978;2023-02-15T11:18:57;10.20;99.90
27026;DHT22;14565;48.626;8.978;2023-02-15T11:21:27;10.30;99.90
27026;DHT22;14565;48.626;8.978;2023-02-15T11:23:54;10.40;99.90
27026;DHT22;14565;48.626;8.978;2023-02-15T11:28:59;10.60;99.20
27026;DHT22;14565;48.626;8.978;2023-02-15T11:31:27;10.50;99.90
27026;DHT22;14565;48.626;8.978;2023-02-15T11:36:47;10.80;99.10
27026;DHT22;14565;48.626;8.978;2023-02-15T11:39:17;10.60;98.80
27026;DHT22;14565;48.626;8.978;2023-02-15T11:41:55;10.70;98.90
27026;DHT22;14565;48.626;8.978;2023-02-15T11:44:27;10.90;97.60
27026;DHT22;14565;48.626;8.978;2023-02-15T11:46:55;10.80;98.00
27026;DHT22;14565;48.626;8.978;2023-02-15T11:49:32;11.00;97.20
27026;DHT22;14565;48.626;8.978;2023-02-15T11:52:06;11.10;96.90
27026;DHT22;14565;48.626;8.978;2023-02-15T11:54:35;11.20;99.90
27026;DHT22;14565;48.626;8.978;2023-02-15T11:59:49;11.20;99.90
27026;DHT22;14565;48.626;8.978;2023-02-15T12:02:19;11.30;99.90
27026;DHT22;14565;48.626;8.978;2023-02-15T12:04:54;11.40;99.80
27026;DHT22;14565;48.626;8.978;2023-02-15T12:07:44;11.30;99.90
27026;DHT22;14565;48.626;8.978;2023-02-15T12:10:22;11.30;98.80
27026;DHT22;14565;48.626;8.978;2023-02-15T12:15:34;11.60;96.90
27026;DHT22;14565;48.626;8.978;2023-02-15T12:18:01;11.60;97.40
27026;DHT22;14565;48.626;8.978;2023-02-15T12:20:33;11.70;96.40
27026;DHT22;14565;48.626;8.978;2023-02-15T12:23:03;11.70;96.60
27026;DHT22;14565;48.626;8.978;2023-02-15T12:25:40;11.80;96.60
27026;DHT22;14565;48.626;8.978;2023-02-15T12:30:47;11.90;97.00
27026;DHT22;14565;48.626;8.978;2023-02-15T12:33:35;12.00;97.50
27026;DHT22;14565;48.626;8.978;2023-02-15T12:49:21;12.00;93.40
27026;DHT22;14565;48.626;8.978;2023-02-15T12:51:56;12.20;94.30
27026;DHT22;14565;48.626;8.978;2023-02-15T12:56:48;12.50;95.50
27026;DHT22;14565;48.626;8.978;2023-02-15T12:59:14;12.50;95.90
27026;DHT22;14565;48.626;8.978;2023-02-15T13:01:46;12.60;95.80
27026;DHT22;14565;48.626;8.978;2023-02-15T13:06:48;12.60;97.00
27026;DHT22;14565;48.626;8.978;2023-02-15T13:09:17;12.70;96.80
27026;DHT22;14565;48.626;8.978;2023-02-15T13:11:45;12.80;96.40
27026;DHT22;14565;48.626;8.978;2023-02-15T13:16:47;12.80;97.10
27026;DHT22;14565;48.626;8.978;2023-02-15T13:22:05;12.70;95.70
27026;DHT22;14565;48.626;8.978;2023-02-15T13:24:53;12.80;94.30
27026;DHT22;14565;48.626;8.978;2023-02-15T13:27:20;13.00;92.60
27026;DHT22;14565;48.626;8.978;2023-02-15T13:29:53;13.00;92.90
27026;DHT22;14565;48.626;8.978;2023-02-15T13:32:29;13.10;93.90
27026;DHT22;14565;48.626;8.978;2023-02-15T13:35:00;13.00;93.10
27026;DHT22;14565;48.626;8.978;2023-02-15T13:40:22;12.90;95.30
27026;DHT22;14565;48.626;8.978;2023-02-15T13:43:24;12.50;97.70
27026;DHT22;14565;48.626;8.978;2023-02-15T14:04:41;12.60;98.30
27026;DHT22;14565;48.626;8.978;2023-02-15T14:15:43;12.40;99.90
27026;DHT22;14565;48.626;8.978;2023-02-15T14:21:18;12.30;99.90
27026;DHT22;14565;48.626;8.978;2023-02-15T14:26:44;12.50;99.90
27026;DHT22;14565;48.626;8.978;2023-02-15T14:32:20;12.70;99.90
27026;DHT22;14565;48.626;8.978;2023-02-15T14:35:40;12.40;99.90
27026;DHT22;14565;48.626;8.978;2023-02-15T15:04:35;11.90;99.90
27026;DHT22;14565;48.626;8.978;2023-02-15T15:17:55;11.40;99.90
27026;DHT22;14565;48.626;8.978;2023-02-15T15:20:38;11.40;99.90
27026;DHT22;14565;48.626;8.978;2023-02-15T15:25:56;11.30;99.90
27026;DHT22;14565;48.626;8.978;2023-02-15T15:49:58;10.60;99.90
27026;DHT22;14565;48.626;8.978;2023-02-15T15:52:24;10.60;99.90
27026;DHT22;14565;48.626;8.978;2023-02-15T15:54:57;10.60;99.90
27026;DHT22;14565;48.626;8.978;2023-02-15T15:59:53;10.40;99.90
27026;DHT22;14565;48.626;8.978;2023-02-15T16:02:20;10.20;99.90
27026;DHT22;14565;48.626;8.978;2023-02-15T16:04:46;10.10;99.90
27026;DHT22;14565;48.626;8.978;2023-02-15T16:09:57;10.00;99.90
27026;DHT22;14565;48.626;8.978;2023-02-15T16:12:25;10.00;99.90
27026;DHT22;14565;48.626;8.978;2023-02-15T16:14:51;10.00;99.90
27026;DHT22;14565;48.626;8.978;2023-02-15T16:17:27;9.90;99.90
27026;DHT22;14565;48.626;8.978;2023-02-15T16:20:00;9.70;99.90
27026;DHT22;14565;48.626;8.978;2023-02-15T16:22:27;9.40;99.90
27026;DHT22;14565;48.626;8.978;2023-02-15T16:27:39;9.00;99.90
27026;DHT22;14565;48.626;8.978;2023-02-15T16:32:48;8.90;99.90
27026;DHT22;14565;48.626;8.978;2023-02-15T16:35:16;8.80;99.90
27026;DHT22;14565;48.626;8.978;2023-02-15T16:37:42;8.50;99.90
27026;DHT22;14565;48.626;8.978;2023-02-15T16:40:41;8.40;99.90
27026;DHT22;14565;48.626;8.978;2023-02-15T16:43:15;8.30;99.90
27026;DHT22;14565;48.626;8.978;2023-02-15T16:45:42;8.20;99.90
27026;DHT22;14565;48.626;8.978;2023-02-15T16:48:14;8.00;99.90
27026;DHT22;14565;48.626;8.978;2023-02-15T16:50:47;7.80;99.90
27026;DHT22;14565;48.626;8.978;2023-02-15T16:53:18;7.60;99.90
27026;DHT22;14565;48.626;8.978;2023-02-15T16:55:51;7.60;99.90
27026;DHT22;14565;48.626;8.978;2023-02-15T16:58:27;7.70;99.90
27026;DHT22;14565;48.626;8.978;2023-02-15T17:01:01;7.50;99.90
27026;DHT22;14565;48.626;8.978;2023-02-15T17:03:28;7.20;99.90
27026;DHT22;14565;48.626;8.978;2023-02-15T17:06:01;7.20;99.90
27026;DHT22;14565;48.626;8.978;2023-02-15T17:11:21;7.00;99.90
27026;DHT22;14565;48.626;8.978;2023-02-15T17:19:09;6.60;99.90
27026;DHT22;14565;48.626;8.978;2023-02-15T17:21:42;6.50;99.90
27026;DHT22;14565;48.626;8.978;2023-02-15T17:24:38;6.20;99.90
27026;DHT22;14565;48.626;8.978;2023-02-15T17:27:26;6.00;99.90
27026;DHT22;14565;48.626;8.978;2023-02-15T17:30:00;5.90;99.90
27026;DHT22;14565;48.626;8.978;2023-02-15T17:32:29;5.90;99.90
27026;DHT22;14565;48.626;8.978;2023-02-15T17:35:21;5.90;99.90
27026;DHT22;14565;48.626;8.978;2023-02-15T17:37:49;5.60;99.90
27026;DHT22;14565;48.626;8.978;2023-02-15T17:40:31;5.50;99.90
27026;DHT22;14565;48.626;8.978;2023-02-15T17:42:56;5.40;99.90
27026;DHT22;14565;48.626;8.978;2023-02-15T17:45:25;5.20;99.90
27026;DHT22;14565;48.626;8.978;2023-02-15T17:47:51;5.00;99.90
27026;DHT22;14565;48.626;8.978;2023-02-15T17:50:23;4.90;99.90
27026;DHT22;14565;48.626;8.978;2023-02-15T17:52:50;4.70;99.90
27026;DHT22;14565;48.626;8.978;2023-02-15T17:55:19;4.60;99.90
27026;DHT22;14565;48.626;8.978;2023-02-15T17:58:29;4.50;99.90
27026;DHT22;14565;48.626;8.978;2023-02-15T18:00:57;4.40;99.90
27026;DHT22;14565;48.626;8.978;2023-02-15T18:03:48;4.30;99.90
27026;DHT22;14565;48.626;8.978;2023-02-15T18:06:34;4.20;99.90
27026;DHT22;14565;48.626;8.978;2023-02-15T18:09:21;4.10;99.90
27026;DHT22;14565;48.626;8.978;2023-02-15T18:12:29;4.10;99.90
27026;DHT22;14565;48.626;8.978;2023-02-15T18:14:56;4.00;99.90
27026;DHT22;14565;48.626;8.978;2023-02-15T18:19:53;3.90;99.90
27026;DHT22;14565;48.626;8.978;2023-02-15T18:22:19;3.80;99.90
27026;DHT22;14565;48.626;8.978;2023-02-15T18:24:47;3.90;99.90
27026;DHT22;14565;48.626;8.978;2023-02-15T18:27:13;3.80;99.90
27026;DHT22;14565;48.626;8.978;2023-02-15T18:29:40;3.80;99.90
27026;DHT22;14565;48.626;8.978;2023-02-15T18:32:15;3.70;99.90
27026;DHT22;14565;48.626;8.978;2023-02-15T18:34:42;3.60;99.90
27026;DHT22;14565;48.626;8.978;2023-02-15T18:37:15;3.60;99.90
27026;DHT22;14565;48.626;8.978;2023-02-15T18:39:45;3.50;99.90
27026;DHT22;14565;48.626;8.978;2023-02-15T18:44:49;3.40;99.90
27026;DHT22;14565;48.626;8.978;2023-02-15T18:47:15;3.30;99.90
27026;DHT22;14565;48.626;8.978;2023-02-15T18:49:40;3.30;99.90
27026;DHT22;14565;48.626;8.978;2023-02-15T18:52:14;3.30;99.90
27026;DHT22;14565;48.626;8.978;2023-02-15T18:54:41;3.20;99.90
27026;DHT22;14565;48.626;8.978;2023-02-15T18:57:09;3.20;99.90
27026;DHT22;14565;48.626;8.978;2023-02-15T18:59:37;3.10;99.90
27026;DHT22;14565;48.626;8.978;2023-02-15T19:02:02;3.10;99.90
27026;DHT22;14565;48.626;8.978;2023-02-15T19:04:28;3.00;99.90
27026;DHT22;14565;48.626;8.978;2023-02-15T19:06:54;2.90;99.90
27026;DHT22;14565;48.626;8.978;2023-02-15T19:09:21;2.90;99.90
27026;DHT22;14565;48.626;8.978;2023-02-15T19:11:50;2.80;99.90
27026;DHT22;14565;48.626;8.978;2023-02-15T19:14:24;2.80;99.90
27026;DHT22;14565;48.626;8.978;2023-02-15T19:16:50;2.80;99.90
27026;DHT22;14565;48.626;8.978;2023-02-15T19:19:15;2.70;99.90
27026;DHT22;14565;48.626;8.978;2023-02-15T19:21:41;2.70;99.90
27026;DHT22;14565;48.626;8.978;2023-02-15T19:24:13;2.70;99.90
27026;DHT22;14565;48.626;8.978;2023-02-15T19:26:41;2.80;99.90
27026;DHT22;14565;48.626;8.978;2023-02-15T19:29:09;2.80;99.90
27026;DHT22;14565;48.626;8.978;2023-02-15T19:31:36;2.70;99.90
27026;DHT22;14565;48.626;8.978;2023-02-15T19:34:14;2.60;99.90
27026;DHT22;14565;48.626;8.978;2023-02-15T19:36:41;2.50;99.90
27026;DHT22;14565;48.626;8.978;2023-02-15T19:39:18;2.50;99.90
27026;DHT22;14565;48.626;8.978;2023-02-15T19:41:45;2.40;99.90
27026;DHT22;14565;48.626;8.978;2023-02-15T19:44:11;2.40;99.90
27026;DHT22;14565;48.626;8.978;2023-02-15T19:46:37;2.40;99.90
27026;DHT22;14565;48.626;8.978;2023-02-15T19:49:03;2.30;99.90
27026;DHT22;14565;48.626;8.978;2023-02-15T19:51:28;2.30;99.90
27026;DHT22;14565;48.626;8.978;2023-02-15T19:53:54;2.30;99.90
27026;DHT22;14565;48.626;8.978;2023-02-15T19:56:23;2.20;99.90
27026;DHT22;14565;48.626;8.978;2023-02-15T19:58:49;2.30;99.90
27026;DHT22;14565;48.626;8.978;2023-02-15T20:01:17;2.30;99.90
27026;DHT22;14565;48.626;8.978;2023-02-15T20:03:43;2.20;99.90